Time;durP1;ratioP1;P1;durP2;ratioP2;P2;SDS_P1;SDS_P2;PMS_P1;PMS_P2;Temp;Humidity;BMP_temperature;BMP_pressure;BME280_temperature;BME280_humidity;BME280_pressure;Samples;Min_cycle;Max_cycle;Signal;HPM_P1;HPM_P2
2022/08/22 00:01:35;;;;;;;2.03;1.00;;;;;;;;;;5109093;27;20582;-59
2022/08/22 00:04:30;;;;;;;1.47;1.03;;;;;;;;;;5101927;27;20290;-58
2022/08/22 00:07:26;;;;;;;1.37;0.70;;;;;;;;;;5112929;27;20220;-58
2022/08/22 00:10:17;;;;;;;2.07;0.97;;;;;;;;;;5116659;27;20207;-58
2022/08/22 00:13:09;;;;;;;1.13;0.90;;;;;;;;;;5118708;27;20225;-58
2022/08/22 00:16:03;;;;;;;0.80;0.80;;;;;;;;;;5118226;27;20212;-58
2022/08/22 00:18:55;;;;;;;0.77;0.77;;;;;;;;;;5113526;27;20697;-58
2022/08/22 00:21:51;;;;;;;1.50;0.83;;;;;;;;;;5109392;27;20203;-58
2022/08/22 00:24:44;;;;;;;1.27;0.93;;;;;;;;;;5109016;27;20321;-58
2022/08/22 00:27:38;;;;;;;1.60;0.80;;;;;;;;;;5116914;27;20204;-58
2022/08/22 00:30:26;;;;;;;0.77;0.77;;;;;;;;;;5110711;27;20767;-59
2022/08/22 00:33:21;;;;;;;1.10;0.80;;;;;;;;;;5113096;27;20235;-58
2022/08/22 00:36:18;;;;;;;1.20;1.07;;;;;;;;;;5116368;27;20200;-59
2022/08/22 00:39:16;;;;;;;1.83;1.00;;;;;;;;;;5122733;27;20587;-58
2022/08/22 00:42:29;;;;;;;0.93;0.80;;;;;;;;;;5106144;27;20576;-59
2022/08/22 00:45:37;;;;;;;1.03;0.93;;;;;;;;;;5117595;27;20689;-58
2022/08/22 00:48:40;;;;;;;0.90;0.80;;;;;;;;;;5114854;27;20250;-59
2022/08/22 00:51:59;;;;;;;1.00;0.60;;;;;;;;;;5118200;27;20558;-59
2022/08/22 00:55:03;;;;;;;0.83;0.83;;;;;;;;;;5096467;27;20212;-58
2022/08/22 00:58:21;;;;;;;1.17;1.07;;;;;;;;;;5112486;27;20203;-58
2022/08/22 01:01:13;;;;;;;1.43;0.90;;;;;;;;;;5115275;27;20215;-59
2022/08/22 01:04:24;;;;;;;1.40;1.00;;;;;;;;;;5106136;27;20249;-59
2022/08/22 01:07:25;;;;;;;0.77;0.77;;;;;;;;;;5110394;27;20239;-58
2022/08/22 01:10:26;;;;;;;1.53;0.87;;;;;;;;;;5100035;27;20202;-58
2022/08/22 01:13:30;;;;;;;1.10;1.00;;;;;;;;;;5109481;27;20230;-58
2022/08/22 01:16:36;;;;;;;0.77;0.77;;;;;;;;;;5118896;27;20231;-58
2022/08/22 01:20:03;;;;;;;0.90;0.80;;;;;;;;;;5113598;27;20300;-58
2022/08/22 01:23:26;;;;;;;1.07;0.97;;;;;;;;;;5122336;27;20761;-58
2022/08/22 01:26:53;;;;;;;1.27;0.87;;;;;;;;;;5073403;27;20256;-58
2022/08/22 01:30:03;;;;;;;1.17;0.70;;;;;;;;;;5107316;27;20684;-58
2022/08/22 01:33:22;;;;;;;1.20;0.77;;;;;;;;;;5113168;27;20320;-58
2022/08/22 01:36:35;;;;;;;0.97;0.70;;;;;;;;;;5107647;27;20219;-58
2022/08/22 01:39:55;;;;;;;0.57;0.57;;;;;;;;;;5113746;27;20724;-58
2022/08/22 01:43:04;;;;;;;1.40;0.87;;;;;;;;;;5116026;27;20222;-58
2022/08/22 01:46:11;;;;;;;0.70;0.70;;;;;;;;;;5101330;28;20753;-58
2022/08/22 01:49:08;;;;;;;0.80;0.70;;;;;;;;;;5113194;27;20210;-58
2022/08/22 01:52:04;;;;;;;0.90;0.90;;;;;;;;;;5103831;27;20207;-58
2022/08/22 01:54:56;;;;;;;0.83;0.60;;;;;;;;;;5122299;27;20695;-59
2022/08/22 01:57:53;;;;;;;0.50;0.50;;;;;;;;;;5097065;28;20698;-59
2022/08/22 02:00:57;;;;;;;0.70;0.70;;;;;;;;;;5118432;27;20221;-58
2022/08/22 02:03:57;;;;;;;0.50;0.50;;;;;;;;;;5108841;27;20594;-58
2022/08/22 02:06:50;;;;;;;0.60;0.60;;;;;;;;;;5091637;28;20308;-58
2022/08/22 02:09:48;;;;;;;2.00;0.93;;;;;;;;;;5081717;28;20204;-59
2022/08/22 02:12:43;;;;;;;1.23;1.00;;;;;;;;;;5086142;28;20204;-58
2022/08/22 02:15:46;;;;;;;0.63;0.63;;;;;;;;;;5093420;28;20240;-58
2022/08/22 02:18:56;;;;;;;0.67;0.60;;;;;;;;;;5091968;28;20294;-58
2022/08/22 02:21:50;;;;;;;0.67;0.67;;;;;;;;;;5094924;28;20591;-58
2022/08/22 02:24:50;;;;;;;1.10;0.70;;;;;;;;;;5080981;28;20208;-58
2022/08/22 02:27:47;;;;;;;1.13;0.50;;;;;;;;;;5102588;28;20576;-57
2022/08/22 02:30:53;;;;;;;0.77;0.60;;;;;;;;;;5082912;28;20216;-59
2022/08/22 02:33:51;;;;;;;0.60;0.60;;;;;;;;;;5087160;28;20219;-58
2022/08/22 02:36:46;;;;;;;0.53;0.50;;;;;;;;;;5079232;28;20212;-58
2022/08/22 02:39:35;;;;;;;0.77;0.77;;;;;;;;;;5090838;28;20212;-58
2022/08/22 02:42:33;;;;;;;0.80;0.70;;;;;;;;;;5084934;28;20200;-58
2022/08/22 02:45:28;;;;;;;0.63;0.60;;;;;;;;;;5083604;28;20195;-58
2022/08/22 02:48:34;;;;;;;0.50;0.50;;;;;;;;;;5092416;28;20581;-58
2022/08/22 02:51:31;;;;;;;0.60;0.60;;;;;;;;;;5088532;28;20205;-59
2022/08/22 02:54:25;;;;;;;0.60;0.60;;;;;;;;;;5089109;28;20709;-58
2022/08/22 02:57:17;;;;;;;2.93;0.67;;;;;;;;;;5080615;28;20213;-58
2022/08/22 03:00:15;;;;;;;0.60;0.57;;;;;;;;;;5096894;28;20242;-58
2022/08/22 03:03:15;;;;;;;0.50;0.50;;;;;;;;;;5091160;28;20692;-58
2022/08/22 03:06:05;;;;;;;0.73;0.60;;;;;;;;;;5112327;28;20733;-59
2022/08/22 03:09:06;;;;;;;1.67;0.80;;;;;;;;;;5108423;28;20203;-58
2022/08/22 03:12:03;;;;;;;0.83;0.80;;;;;;;;;;5106855;28;20347;-58
2022/08/22 03:14:58;;;;;;;0.60;0.60;;;;;;;;;;5105993;27;20229;-58
2022/08/22 03:17:53;;;;;;;0.60;0.60;;;;;;;;;;5116335;27;20314;-59
2022/08/22 03:20:46;;;;;;;0.90;0.57;;;;;;;;;;5115229;27;20214;-58
2022/08/22 03:23:42;;;;;;;0.60;0.50;;;;;;;;;;5120011;27;20578;-58
2022/08/22 03:26:35;;;;;;;0.60;0.60;;;;;;;;;;5121690;27;20553;-58
2022/08/22 03:29:25;;;;;;;0.60;0.60;;;;;;;;;;5115446;27;20688;-59
2022/08/22 03:32:15;;;;;;;0.90;0.63;;;;;;;;;;5119867;27;20228;-59
2022/08/22 03:35:08;;;;;;;0.50;0.50;;;;;;;;;;5104294;27;20246;-58
2022/08/22 03:38:11;;;;;;;0.50;0.50;;;;;;;;;;5123677;27;20202;-59
2022/08/22 03:41:23;;;;;;;0.77;0.40;;;;;;;;;;5112884;27;20223;-58
2022/08/22 03:44:45;;;;;;;0.43;0.43;;;;;;;;;;5119037;27;20191;-58
2022/08/22 03:48:25;;;;;;;0.80;0.80;;;;;;;;;;5108304;27;20204;-58
2022/08/22 03:51:29;;;;;;;0.60;0.60;;;;;;;;;;5028687;28;20568;-58
2022/08/22 03:54:46;;;;;;;0.50;0.50;;;;;;;;;;5031429;28;20228;-58
2022/08/22 03:58:06;;;;;;;0.90;0.80;;;;;;;;;;5114580;27;20379;-59
2022/08/22 04:01:19;;;;;;;0.60;0.60;;;;;;;;;;5104868;27;20299;-58
2022/08/22 04:04:30;;;;;;;0.57;0.57;;;;;;;;;;5112918;27;20202;-58
2022/08/22 04:07:50;;;;;;;0.87;0.67;;;;;;;;;;5104368;27;20575;-58
2022/08/22 04:11:25;;;;;;;1.00;0.70;;;;;;;;;;5123321;27;20307;-58
2022/08/22 04:14:34;;;;;;;1.03;0.80;;;;;;;;;;5083321;27;20246;-58
2022/08/22 04:17:40;;;;;;;0.77;0.50;;;;;;;;;;5119367;27;20199;-58
2022/08/22 04:20:57;;;;;;;0.77;0.77;;;;;;;;;;5117046;27;20206;-59
2022/08/22 04:24:02;;;;;;;0.77;0.67;;;;;;;;;;5106011;27;20202;-58
2022/08/22 04:26:55;;;;;;;0.80;0.77;;;;;;;;;;5117776;27;20299;-58
2022/08/22 04:29:47;;;;;;;2.97;0.80;;;;;;;;;;5110195;27;20236;-58
2022/08/22 04:32:41;;;;;;;0.60;0.60;;;;;;;;;;5110334;27;20678;-58
2022/08/22 04:35:33;;;;;;;2.00;0.83;;;;;;;;;;5103908;27;20232;-58
2022/08/22 04:38:27;;;;;;;0.80;0.80;;;;;;;;;;5122539;27;20681;-58
2022/08/22 04:41:23;;;;;;;0.50;0.50;;;;;;;;;;5113703;27;20212;-58
2022/08/22 04:44:14;;;;;;;0.67;0.60;;;;;;;;;;5121138;27;20201;-58
2022/08/22 04:47:05;;;;;;;0.60;0.60;;;;;;;;;;5115149;27;20681;-58
2022/08/22 04:50:01;;;;;;;0.47;0.47;;;;;;;;;;5119579;27;20783;-58
2022/08/22 04:53:13;;;;;;;1.43;0.70;;;;;;;;;;5110249;27;20208;-59
2022/08/22 04:56:20;;;;;;;0.70;0.70;;;;;;;;;;5104605;28;20208;-60
2022/08/22 04:59:12;;;;;;;0.77;0.60;;;;;;;;;;5119586;27;20223;-59
2022/08/22 05:02:05;;;;;;;0.90;0.77;;;;;;;;;;5104370;27;20623;-58
2022/08/22 05:05:00;;;;;;;0.73;0.70;;;;;;;;;;5110862;27;20717;-58
2022/08/22 05:07:51;;;;;;;0.60;0.60;;;;;;;;;;5100856;27;20685;-58
2022/08/22 05:10:42;;;;;;;0.80;0.80;;;;;;;;;;5122066;27;20209;-58
2022/08/22 05:13:32;;;;;;;0.63;0.53;;;;;;;;;;5110632;27;20210;-58
2022/08/22 05:16:25;;;;;;;0.60;0.60;;;;;;;;;;5108717;27;20200;-58
2022/08/22 05:19:16;;;;;;;1.43;0.70;;;;;;;;;;5108569;27;20618;-58
2022/08/22 05:22:06;;;;;;;0.70;0.70;;;;;;;;;;5115921;27;20281;-58
2022/08/22 05:24:58;;;;;;;2.13;1.27;;;;;;;;;;5112581;27;20609;-59
2022/08/22 05:27:50;;;;;;;1.20;1.10;;;;;;;;;;5106671;27;20266;-58
2022/08/22 05:30:38;;;;;;;0.93;0.93;;;;;;;;;;5117186;27;20208;-61
2022/08/22 05:33:31;;;;;;;1.83;1.03;;;;;;;;;;5112963;27;20243;-58
2022/08/22 05:36:23;;;;;;;1.57;1.47;;;;;;;;;;5109454;27;20586;-59
2022/08/22 05:39:13;;;;;;;1.20;1.10;;;;;;;;;;5114940;27;20208;-58
2022/08/22 05:42:03;;;;;;;1.30;1.30;;;;;;;;;;5120645;27;20212;-58
2022/08/22 05:44:50;;;;;;;1.67;1.50;;;;;;;;;;5115573;27;20206;-58
2022/08/22 05:47:41;;;;;;;1.23;0.97;;;;;;;;;;5121372;27;20669;-58
2022/08/22 05:50:35;;;;;;;1.70;1.60;;;;;;;;;;5115321;27;20714;-59
2022/08/22 05:53:35;;;;;;;1.87;1.73;;;;;;;;;;5116425;27;20683;-59
2022/08/22 05:56:34;;;;;;;2.00;1.90;;;;;;;;;;5111424;27;20207;-59
2022/08/22 05:59:26;;;;;;;2.50;1.80;;;;;;;;;;5117040;27;20264;-58
2022/08/22 06:02:20;;;;;;;1.83;1.73;;;;;;;;;;5104971;27;20220;-58
2022/08/22 06:05:09;;;;;;;1.83;1.73;;;;;;;;;;5118182;27;20321;-58
2022/08/22 06:08:02;;;;;;;2.10;2.00;;;;;;;;;;5099118;28;20200;-59
2022/08/22 06:10:52;;;;;;;2.10;2.00;;;;;;;;;;5101960;28;20696;-58
2022/08/22 06:13:44;;;;;;;1.90;1.80;;;;;;;;;;5118216;28;20203;-58
2022/08/22 06:16:40;;;;;;;1.85;1.75;;;;;;;;;;5113141;28;20536;-59
2022/08/22 06:19:27;;;;;;;1.73;1.63;;;;;;;;;;5111967;28;20284;-58
2022/08/22 06:22:17;;;;;;;1.70;1.60;;;;;;;;;;5106648;28;20212;-59
2022/08/22 06:25:12;;;;;;;2.00;1.90;;;;;;;;;;5118881;28;20215;-58
2022/08/22 06:28:02;;;;;;;1.98;1.83;;;;;;;;;;5102942;28;20328;-59
2022/08/22 06:30:53;;;;;;;1.40;1.40;;;;;;;;;;5118494;28;20228;-58
2022/08/22 06:33:43;;;;;;;1.67;1.58;;;;;;;;;;5111564;28;20202;-59
2022/08/22 06:36:33;;;;;;;1.85;1.75;;;;;;;;;;5118907;28;20212;-59
2022/08/22 06:39:23;;;;;;;2.00;1.90;;;;;;;;;;5103590;28;20202;-58
2022/08/22 06:42:16;;;;;;;1.58;1.50;;;;;;;;;;5117774;28;20290;-59
2022/08/22 06:45:06;;;;;;;1.48;1.40;;;;;;;;;;5096270;28;20203;-59
2022/08/22 06:47:57;;;;;;;1.73;1.63;;;;;;;;;;5107914;28;20206;-59
2022/08/22 06:50:50;;;;;;;1.50;1.40;;;;;;;;;;5100802;27;20202;-58
2022/08/22 06:53:44;;;;;;;2.03;1.60;;;;;;;;;;5118668;27;20613;-59
2022/08/22 06:56:35;;;;;;;1.17;1.17;;;;;;;;;;5112592;27;20205;-58
2022/08/22 06:59:28;;;;;;;1.35;1.25;;;;;;;;;;5122973;27;20205;-58
2022/08/22 07:02:23;;;;;;;1.60;1.50;;;;;;;;;;5120154;27;20211;-59
2022/08/22 07:05:17;;;;;;;1.60;1.50;;;;;;;;;;5122558;27;20801;-58
2022/08/22 07:08:07;;;;;;;1.35;1.25;;;;;;;;;;5113035;27;20206;-59
2022/08/22 07:10:58;;;;;;;1.55;1.45;;;;;;;;;;5108763;27;20217;-59
2022/08/22 07:13:51;;;;;;;1.52;1.42;;;;;;;;;;5114421;27;20674;-59
2022/08/22 07:16:44;;;;;;;1.33;1.23;;;;;;;;;;5113918;27;20286;-58
2022/08/22 07:19:33;;;;;;;1.30;1.30;;;;;;;;;;5123236;27;20254;-57
2022/08/22 07:22:24;;;;;;;1.50;1.40;;;;;;;;;;5108018;27;20203;-58
2022/08/22 07:25:14;;;;;;;1.33;1.30;;;;;;;;;;5122619;27;20243;-56
2022/08/22 07:28:14;;;;;;;1.17;1.17;;;;;;;;;;5112958;27;20217;-56
2022/08/22 07:31:10;;;;;;;1.13;1.10;;;;;;;;;;5108162;27;20206;-58
2022/08/22 07:34:08;;;;;;;1.10;1.00;;;;;;;;;;5106081;27;20685;-57
2022/08/22 07:36:59;;;;;;;1.08;1.05;;;;;;;;;;5113703;27;20209;-57
2022/08/22 07:39:53;;;;;;;1.30;1.20;;;;;;;;;;5115665;27;20217;-58
2022/08/22 07:42:46;;;;;;;1.00;1.00;;;;;;;;;;5117185;27;20618;-58
2022/08/22 07:45:39;;;;;;;1.30;1.30;;;;;;;;;;5106935;27;20220;-58
2022/08/22 07:48:29;;;;;;;1.33;1.23;;;;;;;;;;5117125;27;20211;-58
2022/08/22 07:51:19;;;;;;;1.38;1.27;;;;;;;;;;5115912;27;20720;-58
2022/08/22 07:54:10;;;;;;;1.75;1.38;;;;;;;;;;5118594;27;20216;-58
2022/08/22 07:57:01;;;;;;;1.40;1.30;;;;;;;;;;5117888;27;20205;-58
2022/08/22 07:59:52;;;;;;;0.98;0.98;;;;;;;;;;5113021;27;20216;-58
2022/08/22 08:02:46;;;;;;;0.98;0.98;;;;;;;;;;5105484;27;20214;-58
2022/08/22 08:05:35;;;;;;;1.73;1.27;;;;;;;;;;5107163;27;20230;-58
2022/08/22 08:08:26;;;;;;;0.80;0.80;;;;;;;;;;5117663;27;20724;-58
2022/08/22 08:11:15;;;;;;;1.45;1.20;;;;;;;;;;5107769;27;20209;-58
2022/08/22 08:14:06;;;;;;;1.30;1.20;;;;;;;;;;5118088;27;20201;-58
2022/08/22 08:16:57;;;;;;;1.58;1.23;;;;;;;;;;5109068;27;20289;-56
2022/08/22 08:19:46;;;;;;;1.15;1.08;;;;;;;;;;5106061;27;20209;-57
2022/08/22 08:22:33;;;;;;;0.88;0.88;;;;;;;;;;5104551;27;20206;-57
2022/08/22 08:25:26;;;;;;;0.80;0.80;;;;;;;;;;5117071;27;20237;-57
2022/08/22 08:31:24;;;;;;;1.65;1.10;;;;;;;;;;5119273;27;20446;-57
2022/08/22 08:34:18;;;;;;;1.52;0.93;;;;;;;;;;5105417;27;20730;-56
2022/08/22 08:37:13;;;;;;;1.05;0.90;;;;;;;;;;5120425;27;20210;-57
2022/08/22 08:40:03;;;;;;;0.90;0.85;;;;;;;;;;5116793;27;20671;-56
2022/08/22 08:46:56;;;;;;;1.20;1.05;;;;;;;;;;5115363;27;20210;-59
2022/08/22 08:50:01;;;;;;;0.85;0.85;;;;;;;;;;5114731;27;20577;-58
2022/08/22 08:53:16;;;;;;;1.08;1.05;;;;;;;;;;5115907;27;20205;-58
2022/08/22 08:56:11;;;;;;;1.23;0.90;;;;;;;;;;5113935;27;20702;-58
2022/08/22 08:59:06;;;;;;;0.80;0.80;;;;;;;;;;5108231;27;20207;-58
2022/08/22 09:02:23;;;;;;;0.98;0.85;;;;;;;;;;5112364;27;20209;-58
2022/08/22 09:06:05;;;;;;;1.33;1.00;;;;;;;;;;5091903;28;20245;-58
2022/08/22 09:09:02;;;;;;;1.15;0.98;;;;;;;;;;5077272;28;20207;-58
2022/08/22 09:12:24;;;;;;;0.60;0.60;;;;;;;;;;5079187;28;20218;-58
2022/08/22 09:15:48;;;;;;;0.85;0.77;;;;;;;;;;5081869;28;21132;-58
2022/08/22 09:18:53;;;;;;;0.70;0.70;;;;;;;;;;5058639;28;20463;-58
2022/08/22 09:22:02;;;;;;;1.13;0.80;;;;;;;;;;5082463;28;20333;-59
2022/08/22 09:25:11;;;;;;;0.88;0.88;;;;;;;;;;5085804;28;20308;-58
2022/08/22 09:28:02;;;;;;;0.52;0.52;;;;;;;;;;5087369;28;20297;-57
2022/08/22 09:31:07;;;;;;;0.70;0.70;;;;;;;;;;5082152;28;20700;-58
2022/08/22 09:34:00;;;;;;;1.00;0.75;;;;;;;;;;5077109;28;20217;-58
2022/08/22 09:37:05;;;;;;;0.60;0.60;;;;;;;;;;5083631;28;20574;-58
2022/08/22 09:40:02;;;;;;;2.00;1.10;;;;;;;;;;5078967;28;20586;-58
2022/08/22 09:42:58;;;;;;;1.65;0.60;;;;;;;;;;5081369;28;20249;-58
2022/08/22 09:45:56;;;;;;;0.85;0.85;;;;;;;;;;5084834;28;20627;-58
2022/08/22 09:48:56;;;;;;;0.70;0.70;;;;;;;;;;5084595;28;20230;-58
2022/08/22 09:51:57;;;;;;;0.73;0.73;;;;;;;;;;5076086;28;20215;-58
2022/08/22 09:54:49;;;;;;;0.63;0.63;;;;;;;;;;5079744;28;20206;-58
2022/08/22 09:57:40;;;;;;;1.27;1.00;;;;;;;;;;5081016;28;20240;-58
2022/08/22 10:00:35;;;;;;;1.10;1.00;;;;;;;;;;5079296;28;20210;-58
2022/08/22 10:03:32;;;;;;;0.60;0.60;;;;;;;;;;5085161;28;20214;-58
2022/08/22 10:06:27;;;;;;;0.70;0.70;;;;;;;;;;5096373;27;20573;-58
2022/08/22 10:09:22;;;;;;;0.60;0.60;;;;;;;;;;5120894;27;20221;-58
2022/08/22 10:12:15;;;;;;;0.70;0.70;;;;;;;;;;5114633;27;20672;-58
2022/08/22 10:15:16;;;;;;;1.10;0.70;;;;;;;;;;5105194;28;20201;-58
2022/08/22 10:18:15;;;;;;;1.17;0.80;;;;;;;;;;5110948;27;20197;-58
2022/08/22 10:21:11;;;;;;;0.60;0.60;;;;;;;;;;5101579;28;20259;-57
2022/08/22 10:24:07;;;;;;;0.93;0.90;;;;;;;;;;5120965;27;20209;-59
2022/08/22 10:26:57;;;;;;;0.82;0.70;;;;;;;;;;5105536;28;20204;-58
2022/08/22 10:30:03;;;;;;;0.73;0.70;;;;;;;;;;5120722;28;20572;-58
2022/08/22 10:32:57;;;;;;;0.55;0.52;;;;;;;;;;5098475;28;20221;-58
2022/08/22 10:35:59;;;;;;;0.70;0.63;;;;;;;;;;5109081;28;20221;-58
2022/08/22 10:38:49;;;;;;;0.52;0.50;;;;;;;;;;5106027;28;20197;-58
2022/08/22 10:41:54;;;;;;;1.02;0.68;;;;;;;;;;5108632;28;20212;-57
2022/08/22 10:44:47;;;;;;;0.70;0.70;;;;;;;;;;5106495;28;20210;-58
2022/08/22 10:47:40;;;;;;;0.82;0.55;;;;;;;;;;5102601;28;20205;-58
2022/08/22 10:50:32;;;;;;;0.98;0.80;;;;;;;;;;5090830;28;20205;-59
2022/08/22 10:53:32;;;;;;;0.55;0.55;;;;;;;;;;5098899;28;20663;-59
2022/08/22 10:56:26;;;;;;;1.10;0.57;;;;;;;;;;5112297;28;20723;-58
2022/08/22 10:59:26;;;;;;;0.80;0.50;;;;;;;;;;5101211;28;20846;-59
2022/08/22 11:02:37;;;;;;;0.95;0.63;;;;;;;;;;5103297;28;20220;-58
2022/08/22 11:05:35;;;;;;;1.48;0.77;;;;;;;;;;5093586;28;20230;-58
2022/08/22 11:08:34;;;;;;;0.77;0.77;;;;;;;;;;5087771;28;20691;-58
2022/08/22 11:11:45;;;;;;;0.70;0.63;;;;;;;;;;5081735;28;20199;-58
2022/08/22 11:15:04;;;;;;;0.57;0.50;;;;;;;;;;5087771;28;20283;-59
2022/08/22 11:18:14;;;;;;;0.55;0.50;;;;;;;;;;5091831;28;20195;-59
2022/08/22 11:21:05;;;;;;;0.52;0.52;;;;;;;;;;5078582;28;20228;-59
2022/08/22 11:24:01;;;;;;;0.50;0.45;;;;;;;;;;5085009;28;20255;-58
2022/08/22 11:26:59;;;;;;;0.45;0.45;;;;;;;;;;5078521;28;20230;-58
2022/08/22 11:29:57;;;;;;;0.68;0.50;;;;;;;;;;5076832;28;20608;-59
2022/08/22 11:33:04;;;;;;;0.47;0.47;;;;;;;;;;5080515;28;20579;-58
2022/08/22 11:35:58;;;;;;;0.80;0.57;;;;;;;;;;5083513;28;20248;-58
2022/08/22 11:38:53;;;;;;;1.13;0.68;;;;;;;;;;5083266;28;20286;-58
2022/08/22 11:41:45;;;;;;;1.00;0.60;;;;;;;;;;5081153;28;20276;-58
2022/08/22 11:44:36;;;;;;;0.40;0.40;;;;;;;;;;5077551;28;20289;-59
2022/08/22 11:47:30;;;;;;;0.63;0.60;;;;;;;;;;5082695;28;20282;-59
2022/08/22 11:50:28;;;;;;;0.50;0.43;;;;;;;;;;5078733;28;20206;-59
2022/08/22 11:53:24;;;;;;;0.68;0.50;;;;;;;;;;5080523;28;20933;-59
2022/08/22 11:56:21;;;;;;;0.50;0.50;;;;;;;;;;5095854;28;20295;-58
2022/08/22 11:59:22;;;;;;;0.43;0.32;;;;;;;;;;5093275;28;20225;-58
2022/08/22 12:02:16;;;;;;;1.35;0.60;;;;;;;;;;5087476;28;20194;-58
2022/08/22 12:05:13;;;;;;;0.85;0.60;;;;;;;;;;5086230;28;20234;-58
2022/08/22 12:08:09;;;;;;;1.52;0.80;;;;;;;;;;5118357;27;20209;-58
2022/08/22 12:11:02;;;;;;;0.52;0.52;;;;;;;;;;5113266;27;20205;-58
2022/08/22 12:13:51;;;;;;;0.88;0.70;;;;;;;;;;5117047;27;20556;-58
2022/08/22 12:16:59;;;;;;;0.65;0.57;;;;;;;;;;5105158;27;20589;-59
2022/08/22 12:20:00;;;;;;;0.70;0.70;;;;;;;;;;5114571;27;20202;-58
2022/08/22 12:23:13;;;;;;;0.50;0.50;;;;;;;;;;5106715;27;20213;-59
2022/08/22 12:26:11;;;;;;;0.93;0.75;;;;;;;;;;5109993;28;20194;-59
2022/08/22 12:29:07;;;;;;;0.20;0.20;;;;;;;;;;5112307;27;20193;-58
2022/08/22 12:32:30;;;;;;;0.93;0.50;;;;;;;;;;5107698;27;20213;-59
2022/08/22 12:35:31;;;;;;;0.57;0.55;;;;;;;;;;5084964;28;20225;-59
2022/08/22 12:38:29;;;;;;;0.60;0.60;;;;;;;;;;5110239;27;20273;-59
2022/08/22 12:41:37;;;;;;;0.50;0.50;;;;;;;;;;5110966;27;20310;-58
2022/08/22 12:44:34;;;;;;;0.40;0.40;;;;;;;;;;5118004;27;20205;-59
2022/08/22 12:47:35;;;;;;;0.40;0.40;;;;;;;;;;5106944;27;20198;-58
2022/08/22 12:50:35;;;;;;;0.65;0.57;;;;;;;;;;5108355;27;20194;-58
2022/08/22 12:53:49;;;;;;;0.52;0.50;;;;;;;;;;5106273;27;20665;-59
2022/08/22 12:56:46;;;;;;;0.82;0.75;;;;;;;;;;5116793;27;20252;-59
2022/08/22 12:59:37;;;;;;;0.70;0.70;;;;;;;;;;5105622;27;20209;-58
2022/08/22 13:02:28;;;;;;;0.50;0.50;;;;;;;;;;5114144;27;20205;-59
2022/08/22 13:05:21;;;;;;;0.60;0.60;;;;;;;;;;5100869;27;20244;-58
2022/08/22 13:08:15;;;;;;;0.52;0.52;;;;;;;;;;5115969;27;20202;-58
2022/08/22 13:11:07;;;;;;;0.60;0.60;;;;;;;;;;5114668;27;20212;-58
2022/08/22 13:13:56;;;;;;;0.93;0.85;;;;;;;;;;5116539;27;20683;-59
2022/08/22 13:16:47;;;;;;;0.45;0.45;;;;;;;;;;5112779;27;20222;-58
2022/08/22 13:19:48;;;;;;;0.50;0.50;;;;;;;;;;5106137;27;20205;-58
2022/08/22 13:22:40;;;;;;;1.65;0.57;;;;;;;;;;5113731;27;20245;-58
2022/08/22 13:25:29;;;;;;;0.90;0.40;;;;;;;;;;5103977;27;20194;-58
2022/08/22 13:28:17;;;;;;;1.45;0.70;;;;;;;;;;5121148;27;20242;-58
2022/08/22 13:31:05;;;;;;;0.68;0.60;;;;;;;;;;5107255;27;20211;-59
2022/08/22 13:33:58;;;;;;;0.52;0.52;;;;;;;;;;5111058;27;20206;-58
2022/08/22 13:36:49;;;;;;;0.63;0.63;;;;;;;;;;5102984;27;20233;-58
2022/08/22 13:39:40;;;;;;;0.60;0.60;;;;;;;;;;5123374;27;20280;-58
2022/08/22 13:42:30;;;;;;;0.70;0.70;;;;;;;;;;5094920;28;20198;-59
2022/08/22 13:45:23;;;;;;;0.73;0.73;;;;;;;;;;5105794;27;20681;-58
2022/08/22 13:48:12;;;;;;;0.90;0.85;;;;;;;;;;5102231;27;20202;-58
2022/08/22 13:51:06;;;;;;;1.02;0.68;;;;;;;;;;5115177;27;20206;-58
2022/08/22 13:54:01;;;;;;;0.88;0.75;;;;;;;;;;5105841;27;20289;-59
2022/08/22 13:56:57;;;;;;;1.25;0.70;;;;;;;;;;5109091;27;20226;-58
2022/08/22 13:59:49;;;;;;;1.00;0.70;;;;;;;;;;5110860;27;20205;-58
2022/08/22 14:02:58;;;;;;;0.98;0.55;;;;;;;;;;5116904;27;20205;-58
2022/08/22 14:05:50;;;;;;;0.82;0.65;;;;;;;;;;5115648;27;20332;-59
2022/08/22 14:08:41;;;;;;;0.68;0.68;;;;;;;;;;5106432;27;20780;-59
2022/08/22 14:11:35;;;;;;;0.88;0.50;;;;;;;;;;5113036;27;20206;-58
2022/08/22 14:14:27;;;;;;;0.65;0.50;;;;;;;;;;5105576;28;20205;-58
2022/08/22 14:17:17;;;;;;;0.70;0.70;;;;;;;;;;5104413;28;20233;-58
2022/08/22 14:20:11;;;;;;;0.50;0.50;;;;;;;;;;5105353;28;20675;-58
2022/08/22 14:23:01;;;;;;;0.55;0.50;;;;;;;;;;5110412;28;20583;-58
2022/08/22 14:25:48;;;;;;;2.35;0.60;;;;;;;;;;5108639;28;20202;-58
2022/08/22 14:28:36;;;;;;;1.05;0.90;;;;;;;;;;5110145;28;20214;-59
2022/08/22 14:31:26;;;;;;;0.68;0.60;;;;;;;;;;5107484;28;20688;-59
2022/08/22 14:34:15;;;;;;;2.10;0.90;;;;;;;;;;5111591;28;20618;-58
2022/08/22 14:37:11;;;;;;;1.08;0.70;;;;;;;;;;5110859;28;20228;-58
2022/08/22 14:40:05;;;;;;;2.45;0.50;;;;;;;;;;5114752;28;20221;-58
2022/08/22 14:43:03;;;;;;;0.57;0.55;;;;;;;;;;5113406;28;20201;-59
2022/08/22 14:45:57;;;;;;;0.52;0.50;;;;;;;;;;5102417;28;20202;-58
2022/08/22 14:48:50;;;;;;;0.50;0.50;;;;;;;;;;5111343;28;20208;-59
2022/08/22 14:51:37;;;;;;;0.57;0.57;;;;;;;;;;5102946;28;20213;-59
2022/08/22 14:54:29;;;;;;;0.65;0.55;;;;;;;;;;5112565;28;20211;-58
2022/08/22 14:57:16;;;;;;;0.40;0.40;;;;;;;;;;5111507;28;20253;-59
2022/08/22 15:00:10;;;;;;;0.98;0.50;;;;;;;;;;5106882;28;20202;-58
2022/08/22 15:03:14;;;;;;;0.85;0.63;;;;;;;;;;5111276;28;20209;-58
2022/08/22 15:06:03;;;;;;;0.57;0.57;;;;;;;;;;5109269;28;20239;-58
2022/08/22 15:08:51;;;;;;;1.35;0.57;;;;;;;;;;5108750;28;20216;-58
2022/08/22 15:11:39;;;;;;;0.63;0.63;;;;;;;;;;5121527;27;20194;-57
2022/08/22 15:14:42;;;;;;;0.57;0.57;;;;;;;;;;5105148;27;20298;-58
2022/08/22 15:17:39;;;;;;;1.05;0.50;;;;;;;;;;5115800;27;20321;-57
2022/08/22 15:20:30;;;;;;;0.47;0.47;;;;;;;;;;5111389;27;20684;-58
2022/08/22 15:23:21;;;;;;;0.57;0.50;;;;;;;;;;5112839;27;20204;-58
2022/08/22 15:26:11;;;;;;;0.70;0.70;;;;;;;;;;5104294;27;20207;-58
2022/08/22 15:29:06;;;;;;;0.40;0.40;;;;;;;;;;5114428;27;20205;-58
2022/08/22 15:31:57;;;;;;;0.57;0.57;;;;;;;;;;5111754;27;20202;-57
2022/08/22 15:34:46;;;;;;;0.63;0.50;;;;;;;;;;5114342;27;20202;-58
2022/08/22 15:37:35;;;;;;;0.63;0.60;;;;;;;;;;5111477;27;20227;-57
2022/08/22 15:40:33;;;;;;;1.00;0.57;;;;;;;;;;5118360;27;20712;-57
2022/08/22 15:43:25;;;;;;;0.57;0.57;;;;;;;;;;5121903;27;20217;-58
2022/08/22 15:46:30;;;;;;;0.40;0.40;;;;;;;;;;5116978;27;20262;-57
2022/08/22 15:49:26;;;;;;;0.60;0.60;;;;;;;;;;5115076;27;20205;-57
2022/08/22 15:52:22;;;;;;;1.10;0.63;;;;;;;;;;5116718;27;20695;-57
2022/08/22 15:55:23;;;;;;;0.50;0.50;;;;;;;;;;5118533;27;20285;-60
2022/08/22 15:58:20;;;;;;;0.60;0.40;;;;;;;;;;5111066;27;20371;-60
2022/08/22 16:01:10;;;;;;;1.17;0.70;;;;;;;;;;5110069;27;20328;-60
2022/08/22 16:04:04;;;;;;;0.40;0.40;;;;;;;;;;5111182;27;20218;-58
2022/08/22 16:06:57;;;;;;;0.50;0.50;;;;;;;;;;5115900;27;20234;-59
2022/08/22 16:09:47;;;;;;;0.50;0.50;;;;;;;;;;5116481;27;20286;-58
2022/08/22 16:12:39;;;;;;;0.40;0.40;;;;;;;;;;5109243;27;20213;-59
2022/08/22 16:15:54;;;;;;;0.73;0.47;;;;;;;;;;5108168;27;20211;-58
2022/08/22 16:19:16;;;;;;;0.65;0.65;;;;;;;;;;5111160;27;20586;-58
2022/08/22 16:22:13;;;;;;;0.43;0.43;;;;;;;;;;5116671;27;20576;-59
2022/08/22 16:25:07;;;;;;;0.50;0.50;;;;;;;;;;5107805;27;20290;-59
2022/08/22 16:27:57;;;;;;;0.40;0.40;;;;;;;;;;5117263;27;20198;-59
2022/08/22 16:30:44;;;;;;;0.95;0.68;;;;;;;;;;5109710;27;20268;-59
2022/08/22 16:33:34;;;;;;;1.20;0.88;;;;;;;;;;5110409;27;20198;-58
2022/08/22 16:36:45;;;;;;;0.52;0.50;;;;;;;;;;5108377;27;20213;-58
2022/08/22 16:39:37;;;;;;;0.45;0.40;;;;;;;;;;5104963;27;20201;-59
2022/08/22 16:42:33;;;;;;;0.45;0.30;;;;;;;;;;5105438;27;20686;-59
2022/08/22 16:45:32;;;;;;;0.93;0.40;;;;;;;;;;5105843;27;20204;-58
2022/08/22 16:48:33;;;;;;;0.65;0.65;;;;;;;;;;5112171;27;20197;-59
2022/08/22 16:51:20;;;;;;;0.82;0.80;;;;;;;;;;5104360;27;20209;-59
2022/08/22 16:54:12;;;;;;;0.63;0.52;;;;;;;;;;5105067;27;20205;-59
2022/08/22 16:57:20;;;;;;;0.68;0.68;;;;;;;;;;5107634;27;20234;-58
2022/08/22 17:00:24;;;;;;;0.68;0.68;;;;;;;;;;5108604;27;20257;-59
2022/08/22 17:03:17;;;;;;;1.65;0.93;;;;;;;;;;5098596;27;20293;-58
2022/08/22 17:06:21;;;;;;;1.02;0.65;;;;;;;;;;5115971;27;20628;-59
2022/08/22 17:09:31;;;;;;;0.47;0.47;;;;;;;;;;5114172;27;20250;-59
2022/08/22 17:12:29;;;;;;;1.48;0.60;;;;;;;;;;5098652;28;20205;-59
2022/08/22 17:15:31;;;;;;;0.68;0.68;;;;;;;;;;5101526;27;20320;-58
2022/08/22 17:18:55;;;;;;;0.65;0.65;;;;;;;;;;5103326;27;20263;-59
2022/08/22 17:21:49;;;;;;;1.10;0.52;;;;;;;;;;5114696;27;20268;-58
2022/08/22 17:24:45;;;;;;;0.47;0.40;;;;;;;;;;5100414;28;20206;-59
2022/08/22 17:27:37;;;;;;;0.45;0.45;;;;;;;;;;5113433;27;20267;-59
2022/08/22 17:30:31;;;;;;;0.55;0.50;;;;;;;;;;5114156;27;20224;-59
2022/08/22 17:33:34;;;;;;;1.77;0.65;;;;;;;;;;5109890;27;20204;-58
2022/08/22 17:36:30;;;;;;;0.40;0.40;;;;;;;;;;5112461;27;20353;-58
2022/08/22 17:39:28;;;;;;;0.93;0.40;;;;;;;;;;5107614;27;20290;-59
2022/08/22 17:42:41;;;;;;;0.55;0.50;;;;;;;;;;5110980;27;20212;-58
2022/08/22 17:45:40;;;;;;;0.55;0.50;;;;;;;;;;5107909;27;20649;-59
2022/08/22 17:48:33;;;;;;;0.60;0.60;;;;;;;;;;5108743;27;20204;-58
2022/08/22 17:51:27;;;;;;;0.73;0.60;;;;;;;;;;5103988;27;20804;-59